Time;durP1;ratioP1;P1;durP2;ratioP2;P2;SDS_P1;SDS_P2;PMS_P1;PMS_P2;Temp;Humidity;BMP_temperature;BMP_pressure;BME280_temperature;BME280_humidity;BME280_pressure;Samples;Min_cycle;Max_cycle;Signal;HPM_P1;HPM_P2
2022/11/28 00:00:33;;;;;;;25.40;23.70;;;;;;;;;;5106424;28;20450;-86
2022/11/28 00:03:01;;;;;;;23.92;22.38;;;;;;;;;;5106647;28;20201;-85
2022/11/28 00:05:29;;;;;;;26.42;23.15;;;;;;;;;;5106751;28;20228;-86
2022/11/28 00:07:56;;;;;;;23.92;22.33;;;;;;;;;;5105870;28;20201;-86
2022/11/28 00:10:23;;;;;;;23.60;22.20;;;;;;;;;;5106563;28;20565;-86
2022/11/28 00:12:51;;;;;;;24.48;22.98;;;;;;;;;;5104149;28;20210;-85
2022/11/28 00:15:18;;;;;;;24.23;22.63;;;;;;;;;;5104884;28;20236;-86
2022/11/28 00:17:45;;;;;;;25.15;23.25;;;;;;;;;;5106090;28;20225;-86
2022/11/28 00:20:12;;;;;;;24.40;22.80;;;;;;;;;;5105681;28;20195;-86
2022/11/28 00:22:40;;;;;;;25.20;23.45;;;;;;;;;;5104227;28;20206;-86
2022/11/28 00:25:09;;;;;;;24.60;23.05;;;;;;;;;;5104899;28;20229;-86
2022/11/28 00:27:36;;;;;;;25.60;23.80;;;;;;;;;;5105495;28;20208;-86
2022/11/28 00:30:03;;;;;;;25.98;24.23;;;;;;;;;;5107525;28;20209;-85
2022/11/28 00:32:30;;;;;;;24.70;23.10;;;;;;;;;;5105791;28;20205;-85
2022/11/28 00:34:57;;;;;;;25.02;23.42;;;;;;;;;;5105292;28;20232;-85
2022/11/28 00:37:24;;;;;;;23.98;22.45;;;;;;;;;;5105191;28;20209;-85
2022/11/28 00:39:53;;;;;;;26.55;24.65;;;;;;;;;;5106069;28;20232;-85
2022/11/28 00:42:21;;;;;;;24.27;22.67;;;;;;;;;;5106060;28;20205;-85
2022/11/28 00:44:48;;;;;;;25.38;23.45;;;;;;;;;;5101953;28;20229;-86
2022/11/28 00:47:15;;;;;;;25.40;23.70;;;;;;;;;;5100062;28;20201;-85
2022/11/28 00:49:43;;;;;;;24.63;23.02;;;;;;;;;;5094927;28;20203;-86
2022/11/28 00:52:10;;;;;;;24.95;23.45;;;;;;;;;;5095731;28;20194;-85
2022/11/28 00:54:37;;;;;;;24.13;22.58;;;;;;;;;;5106052;28;20568;-86
2022/11/28 00:57:05;;;;;;;25.65;24.05;;;;;;;;;;5105395;28;20236;-86
2022/11/28 00:59:32;;;;;;;24.88;23.25;;;;;;;;;;5105536;28;20206;-86
2022/11/28 01:02:00;;;;;;;25.20;23.60;;;;;;;;;;5104367;28;20210;-86
2022/11/28 01:04:27;;;;;;;25.20;23.60;;;;;;;;;;5104233;28;20209;-86
2022/11/28 01:06:56;;;;;;;25.05;23.38;;;;;;;;;;5103429;28;20575;-86
2022/11/28 01:09:24;;;;;;;25.48;23.77;;;;;;;;;;5104278;28;20206;-87
2022/11/28 01:11:52;;;;;;;24.15;22.55;;;;;;;;;;5104296;28;20201;-86
2022/11/28 01:14:21;;;;;;;24.75;23.15;;;;;;;;;;5105089;28;20272;-85
2022/11/28 01:16:48;;;;;;;24.58;22.90;;;;;;;;;;5104155;28;20233;-86
2022/11/28 01:19:16;;;;;;;25.00;23.20;;;;;;;;;;5104831;28;20217;-86
2022/11/28 01:21:43;;;;;;;24.20;22.65;;;;;;;;;;5104877;28;20436;-87
2022/11/28 01:24:10;;;;;;;25.45;23.75;;;;;;;;;;5104546;28;20213;-86
2022/11/28 01:26:39;;;;;;;24.58;22.88;;;;;;;;;;5103955;28;20239;-86
2022/11/28 01:29:06;;;;;;;25.10;23.40;;;;;;;;;;5103244;28;20216;-86
2022/11/28 01:31:34;;;;;;;23.70;22.17;;;;;;;;;;5104397;28;20201;-86
2022/11/28 01:34:01;;;;;;;23.73;22.23;;;;;;;;;;5104023;28;20206;-86
2022/11/28 01:36:29;;;;;;;24.25;22.65;;;;;;;;;;5104028;28;20326;-86
2022/11/28 01:38:56;;;;;;;24.30;22.70;;;;;;;;;;5105153;28;20212;-86
2022/11/28 01:41:24;;;;;;;24.65;22.95;;;;;;;;;;5104481;28;20209;-86
2022/11/28 01:43:58;;;;;;;25.35;23.55;;;;;;;;;;5104880;28;20206;-86
2022/11/28 01:46:25;;;;;;;25.08;23.50;;;;;;;;;;5103537;28;20220;-85
2022/11/28 01:48:54;;;;;;;25.85;23.98;;;;;;;;;;5104308;28;20218;-85
2022/11/28 01:51:21;;;;;;;24.10;22.60;;;;;;;;;;5104508;28;20202;-86
2022/11/28 01:53:49;;;;;;;24.73;23.23;;;;;;;;;;5104208;28;20214;-86
2022/11/28 01:56:18;;;;;;;25.25;23.65;;;;;;;;;;5103181;28;20233;-86
2022/11/28 01:58:47;;;;;;;26.10;24.15;;;;;;;;;;5105086;28;20202;-85
2022/11/28 02:01:14;;;;;;;24.58;22.98;;;;;;;;;;5104643;28;20226;-86
2022/11/28 02:03:42;;;;;;;24.85;23.20;;;;;;;;;;5103746;28;20202;-86
2022/11/28 02:06:11;;;;;;;25.08;23.45;;;;;;;;;;5103986;28;20251;-86
2022/11/28 02:08:39;;;;;;;25.05;23.35;;;;;;;;;;5105317;28;20238;-86
2022/11/28 02:11:12;;;;;;;24.98;23.38;;;;;;;;;;5106947;28;20300;-86
2022/11/28 02:13:43;;;;;;;25.35;23.75;;;;;;;;;;5105254;28;20218;-86
2022/11/28 02:16:14;;;;;;;25.60;23.70;;;;;;;;;;5107014;28;20237;-86
2022/11/28 02:18:48;;;;;;;26.10;23.98;;;;;;;;;;5108802;28;20210;-86
2022/11/28 02:21:22;;;;;;;25.48;23.67;;;;;;;;;;5109978;28;20191;-86
2022/11/28 02:24:08;;;;;;;25.40;23.70;;;;;;;;;;5108581;28;20228;-86
2022/11/28 02:26:54;;;;;;;24.77;23.08;;;;;;;;;;5111415;28;20712;-86
2022/11/28 02:29:51;;;;;;;26.92;23.48;;;;;;;;;;5111035;28;20190;-86
2022/11/28 02:32:24;;;;;;;25.23;23.58;;;;;;;;;;5108830;28;20261;-86
2022/11/28 02:34:55;;;;;;;24.45;22.73;;;;;;;;;;5109384;28;20226;-87
2022/11/28 02:37:26;;;;;;;24.48;22.92;;;;;;;;;;5108152;28;20209;-86
2022/11/28 02:39:57;;;;;;;25.38;23.60;;;;;;;;;;5108988;28;20282;-86
2022/11/28 02:42:27;;;;;;;25.60;23.75;;;;;;;;;;5108655;28;20205;-85
2022/11/28 02:44:58;;;;;;;25.08;23.13;;;;;;;;;;5108435;28;20236;-86
2022/11/28 02:47:28;;;;;;;26.25;24.33;;;;;;;;;;5108111;28;20209;-86
2022/11/28 02:49:56;;;;;;;25.55;23.85;;;;;;;;;;5107702;28;20264;-86
2022/11/28 02:52:26;;;;;;;26.40;24.50;;;;;;;;;;5107607;28;20209;-85
2022/11/28 02:54:55;;;;;;;24.05;22.55;;;;;;;;;;5107212;28;20238;-86
2022/11/28 02:57:22;;;;;;;25.83;23.83;;;;;;;;;;5106260;28;20234;-86
2022/11/28 02:59:50;;;;;;;25.63;23.92;;;;;;;;;;5107008;28;20448;-86
2022/11/28 03:02:19;;;;;;;25.42;23.63;;;;;;;;;;5107256;28;20202;-86
2022/11/28 03:04:51;;;;;;;26.95;24.73;;;;;;;;;;5107213;28;20206;-86
2022/11/28 03:07:24;;;;;;;24.98;23.27;;;;;;;;;;5107642;28;20206;-84
2022/11/28 03:10:02;;;;;;;25.88;24.08;;;;;;;;;;5107302;28;20206;-85
2022/11/28 03:12:33;;;;;;;24.60;23.00;;;;;;;;;;5106739;28;20235;-86
2022/11/28 03:15:02;;;;;;;25.02;23.30;;;;;;;;;;5105391;28;20818;-87
2022/11/28 03:17:33;;;;;;;25.40;23.40;;;;;;;;;;5107007;28;20225;-85
2022/11/28 03:20:12;;;;;;;25.63;23.83;;;;;;;;;;5106416;28;20205;-86
2022/11/28 03:22:42;;;;;;;25.33;23.52;;;;;;;;;;5106305;28;20210;-85
2022/11/28 03:25:13;;;;;;;27.02;25.05;;;;;;;;;;5106749;28;20238;-86
2022/11/28 03:27:43;;;;;;;25.70;24.00;;;;;;;;;;5105782;28;20266;-84
2022/11/28 03:30:14;;;;;;;24.40;22.70;;;;;;;;;;5105377;28;20233;-86
2022/11/28 03:32:42;;;;;;;25.23;23.42;;;;;;;;;;5105813;28;20186;-86
2022/11/28 03:35:12;;;;;;;25.63;23.80;;;;;;;;;;5106069;28;20225;-86
2022/11/28 03:37:41;;;;;;;25.67;23.77;;;;;;;;;;5106289;28;20213;-86
2022/11/28 03:40:11;;;;;;;24.52;22.83;;;;;;;;;;5106186;28;20208;-86
2022/11/28 03:42:41;;;;;;;24.02;22.40;;;;;;;;;;5106150;28;20212;-86
2022/11/28 03:45:10;;;;;;;26.17;24.25;;;;;;;;;;5106285;28;20701;-86
2022/11/28 03:47:38;;;;;;;25.48;23.63;;;;;;;;;;5105416;28;20205;-85
2022/11/28 03:50:08;;;;;;;25.27;23.48;;;;;;;;;;5105724;28;20204;-85
2022/11/28 03:52:39;;;;;;;25.20;23.60;;;;;;;;;;5105482;28;20568;-86
2022/11/28 03:55:10;;;;;;;23.83;22.33;;;;;;;;;;5105260;28;20225;-86
2022/11/28 03:57:39;;;;;;;26.00;24.10;;;;;;;;;;5104429;28;20590;-86
2022/11/28 04:00:07;;;;;;;26.27;24.38;;;;;;;;;;5105306;28;20202;-86
2022/11/28 04:02:37;;;;;;;24.70;23.00;;;;;;;;;;5104902;28;20208;-86
2022/11/28 04:05:07;;;;;;;26.25;24.35;;;;;;;;;;5104732;28;20251;-86
2022/11/28 04:07:39;;;;;;;25.85;24.15;;;;;;;;;;5106256;28;20546;-86
2022/11/28 04:10:09;;;;;;;26.48;24.67;;;;;;;;;;5105406;28;20283;-86
2022/11/28 04:12:41;;;;;;;25.80;23.92;;;;;;;;;;5105289;28;20249;-86
2022/11/28 04:15:11;;;;;;;25.67;23.95;;;;;;;;;;5105883;28;20222;-86
2022/11/28 04:17:42;;;;;;;27.17;25.27;;;;;;;;;;5105779;28;20235;-86
2022/11/28 04:20:14;;;;;;;24.90;23.20;;;;;;;;;;5105732;28;20191;-86
2022/11/28 04:22:44;;;;;;;25.57;23.87;;;;;;;;;;5105212;28;20220;-86
2022/11/28 04:25:14;;;;;;;24.83;23.13;;;;;;;;;;5106069;28;20445;-86
2022/11/28 04:27:42;;;;;;;25.67;23.93;;;;;;;;;;5106173;28;20446;-86
2022/11/28 04:30:11;;;;;;;25.53;23.83;;;;;;;;;;5104963;28;20439;-87
2022/11/28 04:32:40;;;;;;;24.03;22.53;;;;;;;;;;5105574;28;20456;-86
2022/11/28 04:35:09;;;;;;;26.30;24.42;;;;;;;;;;5105674;28;20962;-87
2022/11/28 04:37:37;;;;;;;25.13;23.53;;;;;;;;;;5104907;28;20255;-86
2022/11/28 04:40:08;;;;;;;25.65;23.65;;;;;;;;;;5105783;28;20466;-86
2022/11/28 04:42:39;;;;;;;25.00;23.37;;;;;;;;;;5103393;28;20674;-86
2022/11/28 04:45:09;;;;;;;25.80;24.00;;;;;;;;;;5103927;28;20491;-86
2022/11/28 04:47:37;;;;;;;26.52;24.52;;;;;;;;;;5103236;28;20181;-86
2022/11/28 04:50:04;;;;;;;27.30;25.50;;;;;;;;;;5099074;28;20202;-86
2022/11/28 04:52:35;;;;;;;25.27;23.65;;;;;;;;;;5082750;28;20449;-87
2022/11/28 04:55:05;;;;;;;26.53;24.70;;;;;;;;;;5081901;28;20779;-86
2022/11/28 04:57:37;;;;;;;26.93;25.03;;;;;;;;;;5082424;28;20485;-87
2022/11/28 05:00:06;;;;;;;24.57;22.77;;;;;;;;;;5082807;28;20407;-86
2022/11/28 05:02:33;;;;;;;28.35;26.40;;;;;;;;;;5083003;28;20458;-84
2022/11/28 05:05:01;;;;;;;26.20;24.57;;;;;;;;;;5083153;28;20226;-87
2022/11/28 05:07:28;;;;;;;26.05;24.25;;;;;;;;;;5082395;28;20457;-87
2022/11/28 05:09:56;;;;;;;24.83;23.10;;;;;;;;;;5082373;28;20665;-87
2022/11/28 05:12:23;;;;;;;25.57;23.90;;;;;;;;;;5080927;28;20582;-87
2022/11/28 05:14:51;;;;;;;26.30;24.60;;;;;;;;;;5082174;28;20819;-87
2022/11/28 05:17:19;;;;;;;25.60;24.00;;;;;;;;;;5081885;28;20825;-86
2022/11/28 05:19:46;;;;;;;25.30;23.70;;;;;;;;;;5082745;28;20922;-86
2022/11/28 05:22:13;;;;;;;26.53;24.50;;;;;;;;;;5082198;28;20446;-88
2022/11/28 05:24:40;;;;;;;26.37;24.67;;;;;;;;;;5082484;28;20439;-86
2022/11/28 05:27:07;;;;;;;25.20;23.30;;;;;;;;;;5085005;28;20811;-86
2022/11/28 05:29:34;;;;;;;25.70;23.63;;;;;;;;;;5084528;28;20553;-86
2022/11/28 05:32:03;;;;;;;26.67;24.67;;;;;;;;;;5084417;28;20444;-86
2022/11/28 05:34:30;;;;;;;27.40;25.50;;;;;;;;;;5084162;28;20473;-86
2022/11/28 05:36:57;;;;;;;25.67;23.90;;;;;;;;;;5083729;28;20516;-86
2022/11/28 05:39:25;;;;;;;25.90;24.20;;;;;;;;;;5084996;28;20452;-85
2022/11/28 05:41:53;;;;;;;26.10;24.50;;;;;;;;;;5083692;28;20465;-86
2022/11/28 05:44:20;;;;;;;24.43;22.83;;;;;;;;;;5084856;28;20452;-86
2022/11/28 05:46:47;;;;;;;26.37;24.53;;;;;;;;;;5084432;28;20447;-86
2022/11/28 05:49:16;;;;;;;25.97;24.27;;;;;;;;;;5084638;28;20451;-86
2022/11/28 05:51:43;;;;;;;27.27;25.43;;;;;;;;;;5086975;28;20463;-86
2022/11/28 05:54:10;;;;;;;26.17;24.53;;;;;;;;;;5087598;28;20450;-87
2022/11/28 05:56:37;;;;;;;27.50;25.43;;;;;;;;;;5088778;28;20492;-86
2022/11/28 05:59:04;;;;;;;26.40;24.60;;;;;;;;;;5088782;28;20456;-86
2022/11/28 06:01:31;;;;;;;26.03;24.33;;;;;;;;;;5087486;28;20461;-85
2022/11/28 06:04:00;;;;;;;27.00;25.10;;;;;;;;;;5087340;28;20463;-87
2022/11/28 06:06:30;;;;;;;27.02;25.13;;;;;;;;;;5087804;28;20479;-87
2022/11/28 06:08:57;;;;;;;26.92;25.17;;;;;;;;;;5087804;28;20210;-86
2022/11/28 06:11:25;;;;;;;24.40;22.80;;;;;;;;;;5088410;28;20238;-86
2022/11/28 06:13:52;;;;;;;27.30;25.50;;;;;;;;;;5086422;28;20448;-86
2022/11/28 06:16:20;;;;;;;28.80;26.70;;;;;;;;;;5085905;28;20233;-85
2022/11/28 06:18:48;;;;;;;27.47;25.10;;;;;;;;;;5087287;28;20447;-86
2022/11/28 06:21:16;;;;;;;27.30;25.20;;;;;;;;;;5085699;28;20517;-86
2022/11/28 06:23:44;;;;;;;24.27;22.37;;;;;;;;;;5086099;28;20445;-86
2022/11/28 06:26:12;;;;;;;28.77;26.77;;;;;;;;;;5086418;28;20447;-86
2022/11/28 06:28:39;;;;;;;27.90;25.90;;;;;;;;;;5085817;28;20419;-87
2022/11/28 06:31:10;;;;;;;28.40;26.30;;;;;;;;;;5087106;28;20437;-86
2022/11/28 06:33:38;;;;;;;28.17;26.10;;;;;;;;;;5085898;28;20445;-86
2022/11/28 06:36:06;;;;;;;27.17;25.27;;;;;;;;;;5086212;28;20469;-86
2022/11/28 06:38:33;;;;;;;29.07;26.77;;;;;;;;;;5086554;28;20495;-86
2022/11/28 06:41:03;;;;;;;26.10;24.10;;;;;;;;;;5085514;28;20450;-87
2022/11/28 06:43:31;;;;;;;27.27;25.37;;;;;;;;;;5084903;28;20403;-86
2022/11/28 06:45:58;;;;;;;27.40;25.50;;;;;;;;;;5083996;28;20492;-86
2022/11/28 06:48:25;;;;;;;26.23;24.63;;;;;;;;;;5084653;28;20206;-86
2022/11/28 06:50:53;;;;;;;28.20;26.20;;;;;;;;;;5090114;28;20425;-86
2022/11/28 06:53:20;;;;;;;26.13;24.35;;;;;;;;;;5097338;28;20444;-86
2022/11/28 06:55:47;;;;;;;28.75;26.60;;;;;;;;;;5097857;28;20210;-86
2022/11/28 06:58:16;;;;;;;27.83;25.83;;;;;;;;;;5089134;28;20210;-87
2022/11/28 07:00:44;;;;;;;28.13;26.13;;;;;;;;;;5084666;28;20452;-87
2022/11/28 07:03:12;;;;;;;28.53;25.90;;;;;;;;;;5085060;28;20485;-86
2022/11/28 07:05:39;;;;;;;27.80;25.77;;;;;;;;;;5085926;28;20475;-87
2022/11/28 07:08:07;;;;;;;29.85;27.42;;;;;;;;;;5085236;28;20427;-86
2022/11/28 07:10:34;;;;;;;28.40;26.00;;;;;;;;;;5085154;28;20214;-86
2022/11/28 07:13:01;;;;;;;27.97;25.97;;;;;;;;;;5084273;28;20945;-86
2022/11/28 07:15:30;;;;;;;28.97;26.73;;;;;;;;;;5084212;28;20492;-87
2022/11/28 07:17:57;;;;;;;27.97;25.80;;;;;;;;;;5084393;28;20953;-86
2022/11/28 07:20:25;;;;;;;27.63;25.52;;;;;;;;;;5084695;28;20456;-86
2022/11/28 07:22:52;;;;;;;27.80;25.70;;;;;;;;;;5083742;28;20226;-87
2022/11/28 07:25:19;;;;;;;28.05;25.95;;;;;;;;;;5085249;28;20481;-86
2022/11/28 07:27:46;;;;;;;29.33;27.20;;;;;;;;;;5082357;28;20212;-78
2022/11/28 07:30:13;;;;;;;28.92;26.70;;;;;;;;;;5076182;28;20455;-78
2022/11/28 07:32:42;;;;;;;27.53;25.47;;;;;;;;;;5075179;28;20215;-78
2022/11/28 07:35:11;;;;;;;29.35;27.15;;;;;;;;;;5076161;28;20948;-80
2022/11/28 07:37:38;;;;;;;28.05;26.05;;;;;;;;;;5075821;28;20313;-79
2022/11/28 07:40:05;;;;;;;27.00;25.10;;;;;;;;;;5076775;28;20214;-78
2022/11/28 07:42:32;;;;;;;28.10;26.10;;;;;;;;;;5076198;28;20209;-79
2022/11/28 07:45:00;;;;;;;28.48;26.10;;;;;;;;;;5076001;28;20450;-79
2022/11/28 07:47:27;;;;;;;27.17;25.25;;;;;;;;;;5075051;28;20203;-79
2022/11/28 07:49:55;;;;;;;27.87;25.77;;;;;;;;;;5075949;28;20571;-78
2022/11/28 07:52:22;;;;;;;27.27;25.38;;;;;;;;;;5075537;28;20452;-79
2022/11/28 07:54:49;;;;;;;29.27;26.67;;;;;;;;;;5075790;28;20812;-78
2022/11/28 07:57:16;;;;;;;26.77;24.77;;;;;;;;;;5075261;28;20316;-79
2022/11/28 07:59:43;;;;;;;27.38;25.17;;;;;;;;;;5075497;28;20217;-79
2022/11/28 08:02:10;;;;;;;26.77;24.98;;;;;;;;;;5075480;28;20206;-78
2022/11/28 08:04:38;;;;;;;28.50;25.83;;;;;;;;;;5077427;28;20218;-78
2022/11/28 08:07:06;;;;;;;27.92;25.17;;;;;;;;;;5074243;28;20205;-78
2022/11/28 08:09:33;;;;;;;27.85;25.33;;;;;;;;;;5074468;28;20214;-78
2022/11/28 08:12:00;;;;;;;29.20;26.70;;;;;;;;;;5072718;28;20263;-78
2022/11/28 08:14:28;;;;;;;26.70;24.47;;;;;;;;;;5073878;28;20448;-78
2022/11/28 08:16:55;;;;;;;27.05;25.05;;;;;;;;;;5073896;28;20452;-78
2022/11/28 08:19:23;;;;;;;27.40;25.30;;;;;;;;;;5074963;28;20228;-78
2022/11/28 08:21:50;;;;;;;27.90;25.90;;;;;;;;;;5074218;28;20214;-79
2022/11/28 08:24:19;;;;;;;28.20;25.93;;;;;;;;;;5075627;28;20221;-81
2022/11/28 08:26:46;;;;;;;26.30;24.30;;;;;;;;;;5077502;28;20982;-81
2022/11/28 08:29:13;;;;;;;27.63;25.65;;;;;;;;;;5075694;28;20798;-79
2022/11/28 08:31:41;;;;;;;27.85;25.75;;;;;;;;;;5075968;28;20214;-79
2022/11/28 08:34:09;;;;;;;26.63;24.80;;;;;;;;;;5075887;28;20217;-79
2022/11/28 08:36:38;;;;;;;27.57;25.37;;;;;;;;;;5075734;28;20468;-79
2022/11/28 08:39:06;;;;;;;27.80;25.73;;;;;;;;;;5075711;28;20491;-79
2022/11/28 08:41:34;;;;;;;27.53;25.53;;;;;;;;;;5075537;28;20448;-79
2022/11/28 08:44:01;;;;;;;27.93;25.93;;;;;;;;;;5075186;28;20456;-80
2022/11/28 08:46:29;;;;;;;27.43;25.53;;;;;;;;;;5075499;28;20474;-79
2022/11/28 08:48:57;;;;;;;28.03;25.90;;;;;;;;;;5075700;28;20433;-79
2022/11/28 08:51:24;;;;;;;28.43;26.20;;;;;;;;;;5075481;28;20868;-79
2022/11/28 08:53:52;;;;;;;27.00;25.00;;;;;;;;;;5074850;28;20461;-78
2022/11/28 08:56:20;;;;;;;29.00;26.50;;;;;;;;;;5075678;28;20451;-79
2022/11/28 08:58:49;;;;;;;29.75;27.42;;;;;;;;;;5075480;28;20460;-79
2022/11/28 09:01:16;;;;;;;28.60;26.30;;;;;;;;;;5075445;28;20210;-78
2022/11/28 09:03:44;;;;;;;27.67;25.43;;;;;;;;;;5074979;28;20459;-79
2022/11/28 09:06:11;;;;;;;31.50;28.53;;;;;;;;;;5074885;28;20480;-79
2022/11/28 09:08:38;;;;;;;28.48;26.27;;;;;;;;;;5074974;28;20449;-78
2022/11/28 09:11:08;;;;;;;29.60;27.23;;;;;;;;;;5074969;28;20204;-78
2022/11/28 09:13:36;;;;;;;29.40;27.05;;;;;;;;;;5074672;28;20428;-79
2022/11/28 09:16:05;;;;;;;29.23;26.92;;;;;;;;;;5075100;28;20232;-79
2022/11/28 09:18:32;;;;;;;28.93;26.93;;;;;;;;;;5074934;28;20229;-79
2022/11/28 09:21:00;;;;;;;28.20;26.07;;;;;;;;;;5075069;28;20456;-78
2022/11/28 09:23:28;;;;;;;30.70;28.08;;;;;;;;;;5075019;28;20449;-78
2022/11/28 09:25:55;;;;;;;29.10;26.80;;;;;;;;;;5076453;28;20224;-76
2022/11/28 09:28:23;;;;;;;28.50;26.23;;;;;;;;;;5080573;28;20420;-80
2022/11/28 09:30:50;;;;;;;27.97;25.93;;;;;;;;;;5078265;28;20457;-78
2022/11/28 09:33:19;;;;;;;30.05;27.63;;;;;;;;;;5079121;28;20846;-81
2022/11/28 09:35:46;;;;;;;28.77;26.37;;;;;;;;;;5081905;28;20226;-78
2022/11/28 09:38:13;;;;;;;28.70;26.60;;;;;;;;;;5076203;28;20466;-77
2022/11/28 09:40:42;;;;;;;29.77;27.57;;;;;;;;;;5076765;28;20418;-78
2022/11/28 09:43:12;;;;;;;28.70;26.40;;;;;;;;;;5078667;28;20929;-80
2022/11/28 09:45:40;;;;;;;31.00;28.50;;;;;;;;;;5080263;28;20472;-78
2022/11/28 09:48:13;;;;;;;26.90;25.10;;;;;;;;;;5076474;28;20448;-79
2022/11/28 09:50:41;;;;;;;28.20;26.13;;;;;;;;;;5077779;28;21065;-82
2022/11/28 09:53:14;;;;;;;30.27;28.00;;;;;;;;;;5077065;28;20430;-78
2022/11/28 09:55:43;;;;;;;30.47;28.20;;;;;;;;;;5076994;28;20963;-78
2022/11/28 09:58:13;;;;;;;29.07;26.77;;;;;;;;;;5076821;28;20857;-78
2022/11/28 10:00:44;;;;;;;29.23;27.03;;;;;;;;;;5077099;28;20480;-78
2022/11/28 10:03:20;;;;;;;30.63;28.40;;;;;;;;;;5076359;28;20419;-79
2022/11/28 10:05:53;;;;;;;29.13;26.70;;;;;;;;;;5077270;28;20472;-79
2022/11/28 10:08:23;;;;;;;29.70;27.40;;;;;;;;;;5077862;28;20423;-78
2022/11/28 10:10:54;;;;;;;29.97;27.47;;;;;;;;;;5077220;28;20443;-78
2022/11/28 10:13:24;;;;;;;28.87;26.50;;;;;;;;;;5076507;28;20432;-78
2022/11/28 10:15:55;;;;;;;30.07;27.77;;;;;;;;;;5077241;28;20473;-78
2022/11/28 10:18:35;;;;;;;30.47;28.03;;;;;;;;;;5076374;28;20553;-78
2022/11/28 10:21:06;;;;;;;28.00;26.00;;;;;;;;;;5076693;28;20399;-78
2022/11/28 10:23:35;;;;;;;26.70;24.80;;;;;;;;;;5075664;28;20422;-78
2022/11/28 10:26:05;;;;;;;29.57;27.37;;;;;;;;;;5076311;28;20446;-79
2022/11/28 10:28:34;;;;;;;29.47;27.33;;;;;;;;;;5076516;28;20510;-78
2022/11/28 10:31:04;;;;;;;31.50;29.00;;;;;;;;;;5075994;28;20491;-79
2022/11/28 10:33:35;;;;;;;30.63;27.93;;;;;;;;;;5075649;28;20582;-78
2022/11/28 10:36:03;;;;;;;30.07;27.60;;;;;;;;;;5076331;28;20902;-78
2022/11/28 10:38:33;;;;;;;31.07;28.73;;;;;;;;;;5076172;28;20552;-78
2022/11/28 10:41:01;;;;;;;28.60;26.30;;;;;;;;;;5076668;28;20448;-79
2022/11/28 10:43:35;;;;;;;28.70;26.40;;;;;;;;;;5076067;28;20435;-78
2022/11/28 10:46:07;;;;;;;30.20;27.70;;;;;;;;;;5075945;28;20473;-78
2022/11/28 10:48:39;;;;;;;30.50;28.20;;;;;;;;;;5076314;28;20407;-78
2022/11/28 10:51:09;;;;;;;30.40;28.10;;;;;;;;;;5076366;28;20408;-78
2022/11/28 10:53:42;;;;;;;29.23;27.03;;;;;;;;;;5075778;28;20427;-78
2022/11/28 10:56:13;;;;;;;30.87;28.07;;;;;;;;;;5075140;28;20962;-78
2022/11/28 10:58:46;;;;;;;30.47;28.03;;;;;;;;;;5077182;28;20476;-79
2022/11/28 11:01:13;;;;;;;30.60;28.07;;;;;;;;;;5078259;28;20419;-79
2022/11/28 11:03:41;;;;;;;31.27;28.67;;;;;;;;;;5077083;28;20429;-78
2022/11/28 11:06:08;;;;;;;36.37;32.57;;;;;;;;;;5077555;28;20442;-80
2022/11/28 11:08:36;;;;;;;33.17;30.30;;;;;;;;;;5077271;28;20432;-79
2022/11/28 11:11:06;;;;;;;32.20;29.70;;;;;;;;;;5077208;28;20449;-78
2022/11/28 11:13:34;;;;;;;30.40;27.90;;;;;;;;;;5076416;28;20444;-79
2022/11/28 11:16:03;;;;;;;31.03;28.47;;;;;;;;;;5077965;28;20952;-78
2022/11/28 11:18:31;;;;;;;30.60;28.10;;;;;;;;;;5088476;28;20482;-79
2022/11/28 11:21:07;;;;;;;28.43;26.37;;;;;;;;;;5091135;28;20510;-80
2022/11/28 11:23:35;;;;;;;28.90;26.77;;;;;;;;;;5081177;28;20438;-80
2022/11/28 11:26:02;;;;;;;31.33;28.53;;;;;;;;;;5077202;28;20796;-79
2022/11/28 11:28:39;;;;;;;30.30;27.70;;;;;;;;;;5077524;28;20439;-79
2022/11/28 11:31:15;;;;;;;30.47;27.97;;;;;;;;;;5077677;28;20408;-79
2022/11/28 11:33:43;;;;;;;32.37;29.87;;;;;;;;;;5076994;28;20419;-78
2022/11/28 11:36:21;;;;;;;30.45;28.10;;;;;;;;;;5076966;28;20973;-79
2022/11/28 11:38:48;;;;;;;33.60;30.73;;;;;;;;;;5077677;28;20208;-79
2022/11/28 11:41:21;;;;;;;31.07;28.37;;;;;;;;;;5077400;28;20782;-79
2022/11/28 11:43:49;;;;;;;32.63;29.73;;;;;;;;;;5076405;28;20839;-79
2022/11/28 11:46:16;;;;;;;30.80;28.30;;;;;;;;;;5076824;28;20472;-78
2022/11/28 11:48:44;;;;;;;32.10;29.27;;;;;;;;;;5074972;28;20507;-79
2022/11/28 11:51:21;;;;;;;32.00;29.33;;;;;;;;;;5076325;28;20422;-79
2022/11/28 11:53:48;;;;;;;29.20;26.90;;;;;;;;;;5075572;28;20420;-78
2022/11/28 11:56:16;;;;;;;29.60;27.20;;;;;;;;;;5074633;28;20469;-78
2022/11/28 11:58:45;;;;;;;29.90;27.60;;;;;;;;;;5075134;28;20456;-80
2022/11/28 12:01:16;;;;;;;29.90;27.50;;;;;;;;;;5077115;28;20502;-79
2022/11/28 12:03:49;;;;;;;30.80;28.40;;;;;;;;;;5074562;28;20441;-79
2022/11/28 12:06:18;;;;;;;29.77;27.53;;;;;;;;;;5074822;28;20478;-79
2022/11/28 12:08:49;;;;;;;31.23;28.63;;;;;;;;;;5074976;28;20422;-78
2022/11/28 12:11:19;;;;;;;30.17;27.77;;;;;;;;;;5075432;28;20419;-78
2022/11/28 12:13:46;;;;;;;31.13;28.67;;;;;;;;;;5075140;28;20449;-79
2022/11/28 12:16:25;;;;;;;30.67;28.33;;;;;;;;;;5075509;28;20476;-77
2022/11/28 12:18:58;;;;;;;31.33;28.33;;;;;;;;;;5076447;28;20489;-78
2022/11/28 12:21:31;;;;;;;30.93;28.40;;;;;;;;;;5074596;28;20440;-78
2022/11/28 12:24:05;;;;;;;29.03;26.40;;;;;;;;;;5073901;28;20721;-78
2022/11/28 12:26:36;;;;;;;29.90;27.47;;;;;;;;;;5074379;28;20448;-78
2022/11/28 12:29:09;;;;;;;30.23;27.83;;;;;;;;;;5076456;28;20425;-78
2022/11/28 12:31:41;;;;;;;30.53;27.83;;;;;;;;;;5077108;28;20445;-79
2022/11/28 12:34:14;;;;;;;32.10;29.50;;;;;;;;;;5077117;28;20449;-79
2022/11/28 12:36:44;;;;;;;31.50;28.83;;;;;;;;;;5075838;28;20461;-79
2022/11/28 12:39:18;;;;;;;32.50;29.83;;;;;;;;;;5076302;28;20477;-79
2022/11/28 12:41:59;;;;;;;33.60;31.00;;;;;;;;;;5076077;28;20505;-80
2022/11/28 12:44:30;;;;;;;31.00;28.70;;;;;;;;;;5076425;28;20453;-78
2022/11/28 12:47:02;;;;;;;32.50;29.90;;;;;;;;;;5076229;28;20397;-79
2022/11/28 12:49:35;;;;;;;31.17;28.83;;;;;;;;;;5076356;28;20408;-79
2022/11/28 12:52:09;;;;;;;31.13;28.83;;;;;;;;;;5075572;28;20447;-78
2022/11/28 12:54:49;;;;;;;31.90;29.30;;;;;;;;;;5076474;28;20443;-80
2022/11/28 12:57:20;;;;;;;31.30;28.77;;;;;;;;;;5076113;28;20432;-79
2022/11/28 12:59:53;;;;;;;30.73;28.23;;;;;;;;;;5075734;28;20484;-78
2022/11/28 13:02:26;;;;;;;34.30;31.40;;;;;;;;;;5075687;28;20835;-79
2022/11/28 13:05:01;;;;;;;33.73;31.03;;;;;;;;;;5075722;28;20488;-79
2022/11/28 13:07:32;;;;;;;32.13;29.40;;;;;;;;;;5075426;28;20502;-79
2022/11/28 13:10:02;;;;;;;35.47;32.47;;;;;;;;;;5075518;28;20985;-78
2022/11/28 13:12:36;;;;;;;33.63;31.13;;;;;;;;;;5074415;28;20503;-78
2022/11/28 13:15:09;;;;;;;33.10;30.23;;;;;;;;;;5074892;28;20460;-79
2022/11/28 13:17:42;;;;;;;32.67;30.17;;;;;;;;;;5074953;28;20472;-78
2022/11/28 13:20:17;;;;;;;34.10;31.30;;;;;;;;;;5074497;28;20484;-77
2022/11/28 13:22:50;;;;;;;31.37;28.87;;;;;;;;;;5074403;28;20443;-78
2022/11/28 13:25:20;;;;;;;32.43;29.93;;;;;;;;;;5075660;28;20448;-79
2022/11/28 13:27:51;;;;;;;31.07;28.67;;;;;;;;;;5074199;28;20433;-79
2022/11/28 13:30:21;;;;;;;32.20;29.50;;;;;;;;;;5075504;28;20513;-79
2022/11/28 13:32:53;;;;;;;31.33;28.87;;;;;;;;;;5074816;28;20449;-79
2022/11/28 13:35:20;;;;;;;29.37;27.17;;;;;;;;;;5076043;28;20515;-80
2022/11/28 13:37:52;;;;;;;30.90;28.47;;;;;;;;;;5075832;28;20436;-80
2022/11/28 13:40:24;;;;;;;30.83;28.53;;;;;;;;;;5075387;28;20989;-79
2022/11/28 13:42:53;;;;;;;30.27;27.80;;;;;;;;;;5075271;28;20424;-79
2022/11/28 13:45:21;;;;;;;31.40;28.80;;;;;;;;;;5075933;28;20436;-79
2022/11/28 13:47:50;;;;;;;31.77;29.17;;;;;;;;;;5075964;28;20436;-80
2022/11/28 13:50:33;;;;;;;31.83;29.20;;;;;;;;;;5075682;28;20446;-79
2022/11/28 13:53:01;;;;;;;31.17;28.70;;;;;;;;;;5080769;28;20454;-79
2022/11/28 13:55:38;;;;;;;31.50;28.93;;;;;;;;;;5096637;28;20491;-79
2022/11/28 13:58:11;;;;;;;31.80;29.07;;;;;;;;;;5096177;28;20454;-79
2022/11/28 14:00:38;;;;;;;32.20;29.60;;;;;;;;;;5096088;28;20500;-79
2022/11/28 14:03:18;;;;;;;31.20;28.80;;;;;;;;;;5095848;28;20453;-79
2022/11/28 14:05:45;;;;;;;30.90;28.40;;;;;;;;;;5095748;28;20487;-78
2022/11/28 14:08:26;;;;;;;32.73;29.97;;;;;;;;;;5096092;28;20449;-80
2022/11/28 14:11:01;;;;;;;31.50;29.00;;;;;;;;;;5096362;28;20405;-79
2022/11/28 14:13:48;;;;;;;30.00;27.40;;;;;;;;;;5099430;28;20448;-78
2022/11/28 14:16:21;;;;;;;32.43;29.83;;;;;;;;;;5098961;28;20477;-78
2022/11/28 14:19:04;;;;;;;31.40;28.77;;;;;;;;;;5099406;28;20996;-79
2022/11/28 14:21:38;;;;;;;30.07;27.67;;;;;;;;;;5099136;28;20433;-78
2022/11/28 14:24:11;;;;;;;32.17;29.57;;;;;;;;;;5098248;28;20436;-79
2022/11/28 14:26:41;;;;;;;33.20;30.47;;;;;;;;;;5098689;28;20495;-79
2022/11/28 14:29:19;;;;;;;31.87;29.17;;;;;;;;;;5098722;28;20441;-79